sensor_id;sensor_type;location;lat;lon;timestamp;temperature;humidity
20366;DHT22;10341;49.894;8.822;2023-07-02T00:04:13;17.40;99.90
20366;DHT22;10341;49.894;8.822;2023-07-02T00:09:36;17.40;99.90
20366;DHT22;10341;49.894;8.822;2023-07-02T00:14:55;17.40;99.90
20366;DHT22;10341;49.894;8.822;2023-07-02T00:20:15;17.30;99.90
20366;DHT22;10341;49.894;8.822;2023-07-02T00:25:36;17.30;99.90
20366;DHT22;10341;49.894;8.822;2023-07-02T00:30:56;17.30;99.90
20366;DHT22;10341;49.894;8.822;2023-07-02T00:36:16;17.30;99.90
20366;DHT22;10341;49.894;8.822;2023-07-02T00:41:35;17.20;99.90
20366;DHT22;10341;49.894;8.822;2023-07-02T00:46:55;17.20;99.90
20366;DHT22;10341;49.894;8.822;2023-07-02T00:52:15;17.10;99.90
20366;DHT22;10341;49.894;8.822;2023-07-02T00:57:34;17.10;99.90
20366;DHT22;10341;49.894;8.822;2023-07-02T01:02:55;17.00;99.90
20366;DHT22;10341;49.894;8.822;2023-07-02T01:08:18;17.00;99.90
20366;DHT22;10341;49.894;8.822;2023-07-02T01:13:38;16.90;99.90
20366;DHT22;10341;49.894;8.822;2023-07-02T01:18:57;16.90;99.90
20366;DHT22;10341;49.894;8.822;2023-07-02T01:24:17;16.70;99.90
20366;DHT22;10341;49.894;8.822;2023-07-02T01:29:37;16.50;99.90
20366;DHT22;10341;49.894;8.822;2023-07-02T01:34:56;16.30;99.90
20366;DHT22;10341;49.894;8.822;2023-07-02T01:40:18;16.20;99.90
20366;DHT22;10341;49.894;8.822;2023-07-02T01:45:38;16.00;99.90
20366;DHT22;10341;49.894;8.822;2023-07-02T01:50:57;15.90;99.90
20366;DHT22;10341;49.894;8.822;2023-07-02T01:56:17;15.80;99.90
20366;DHT22;10341;49.894;8.822;2023-07-02T02:01:37;15.70;99.90
20366;DHT22;10341;49.894;8.822;2023-07-02T02:06:59;15.60;99.90
20366;DHT22;10341;49.894;8.822;2023-07-02T02:12:19;15.50;99.90
20366;DHT22;10341;49.894;8.822;2023-07-02T02:17:39;15.40;99.90
20366;DHT22;10341;49.894;8.822;2023-07-02T02:22:58;15.30;99.90
20366;DHT22;10341;49.894;8.822;2023-07-02T02:28:17;15.30;99.90
20366;DHT22;10341;49.894;8.822;2023-07-02T02:33:37;15.20;99.90
20366;DHT22;10341;49.894;8.822;2023-07-02T02:38:58;15.20;99.90
20366;DHT22;10341;49.894;8.822;2023-07-02T02:44:19;15.20;99.90
20366;DHT22;10341;49.894;8.822;2023-07-02T02:49:38;15.10;99.90
20366;DHT22;10341;49.894;8.822;2023-07-02T02:54:59;15.00;99.90
20366;DHT22;10341;49.894;8.822;2023-07-02T03:00:18;14.90;99.90
20366;DHT22;10341;49.894;8.822;2023-07-02T03:05:38;14.90;99.90
20366;DHT22;10341;49.894;8.822;2023-07-02T03:10:57;14.80;99.90
20366;DHT22;10341;49.894;8.822;2023-07-02T03:16:17;15.00;99.90
20366;DHT22;10341;49.894;8.822;2023-07-02T03:21:36;14.90;99.90
20366;DHT22;10341;49.894;8.822;2023-07-02T03:26:56;14.90;99.90
20366;DHT22;10341;49.894;8.822;2023-07-02T03:32:15;14.70;99.90
20366;DHT22;10341;49.894;8.822;2023-07-02T03:37:35;14.60;99.90
20366;DHT22;10341;49.894;8.822;2023-07-02T03:42:54;14.60;99.90
20366;DHT22;10341;49.894;8.822;2023-07-02T03:48:13;14.50;99.90
20366;DHT22;10341;49.894;8.822;2023-07-02T03:53:32;14.60;99.90
20366;DHT22;10341;49.894;8.822;2023-07-02T03:58:52;14.60;99.90
20366;DHT22;10341;49.894;8.822;2023-07-02T04:04:11;14.70;99.90
20366;DHT22;10341;49.894;8.822;2023-07-02T04:09:30;14.80;99.90
20366;DHT22;10341;49.894;8.822;2023-07-02T04:14:51;14.80;99.90
20366;DHT22;10341;49.894;8.822;2023-07-02T04:20:11;14.90;99.90
20366;DHT22;10341;49.894;8.822;2023-07-02T04:25:31;14.90;99.90
20366;DHT22;10341;49.894;8.822;2023-07-02T04:30:50;14.90;99.90
20366;DHT22;10341;49.894;8.822;2023-07-02T04:36:11;15.00;99.90
20366;DHT22;10341;49.894;8.822;2023-07-02T04:41:31;15.00;99.90
20366;DHT22;10341;49.894;8.822;2023-07-02T04:46:51;15.00;99.90
20366;DHT22;10341;49.894;8.822;2023-07-02T04:52:10;15.10;99.90
20366;DHT22;10341;49.894;8.822;2023-07-02T04:57:29;15.20;99.90
20366;DHT22;10341;49.894;8.822;2023-07-02T05:02:49;15.30;99.90
20366;DHT22;10341;49.894;8.822;2023-07-02T05:08:08;15.60;99.90
20366;DHT22;10341;49.894;8.822;2023-07-02T05:13:28;15.80;99.90
20366;DHT22;10341;49.894;8.822;2023-07-02T05:18:47;16.10;99.90
20366;DHT22;10341;49.894;8.822;2023-07-02T05:24:08;16.30;99.90
20366;DHT22;10341;49.894;8.822;2023-07-02T05:29:27;16.50;99.90
20366;DHT22;10341;49.894;8.822;2023-07-02T05:34:47;16.60;99.90
20366;DHT22;10341;49.894;8.822;2023-07-02T05:40:07;16.90;99.90
20366;DHT22;10341;49.894;8.822;2023-07-02T05:45:26;17.00;99.90
20366;DHT22;10341;49.894;8.822;2023-07-02T05:50:46;17.40;99.90
20366;DHT22;10341;49.894;8.822;2023-07-02T05:56:05;17.60;99.90
20366;DHT22;10341;49.894;8.822;2023-07-02T06:01:25;17.70;99.90
20366;DHT22;10341;49.894;8.822;2023-07-02T06:06:45;17.70;99.90
20366;DHT22;10341;49.894;8.822;2023-07-02T06:12:04;17.70;99.90
20366;DHT22;10341;49.894;8.822;2023-07-02T06:17:24;17.80;99.90
20366;DHT22;10341;49.894;8.822;2023-07-02T06:22:44;18.00;99.90
20366;DHT22;10341;49.894;8.822;2023-07-02T06:28:03;17.90;99.90
20366;DHT22;10341;49.894;8.822;2023-07-02T06:33:22;17.90;99.90
20366;DHT22;10341;49.894;8.822;2023-07-02T06:38:42;18.00;99.90
20366;DHT22;10341;49.894;8.822;2023-07-02T06:44:02;18.10;99.90
20366;DHT22;10341;49.894;8.822;2023-07-02T06:49:21;18.00;99.90
20366;DHT22;10341;49.894;8.822;2023-07-02T06:54:41;18.30;99.90
20366;DHT22;10341;49.894;8.822;2023-07-02T07:00:00;18.70;99.90
20366;DHT22;10341;49.894;8.822;2023-07-02T07:05:21;19.00;99.90
20366;DHT22;10341;49.894;8.822;2023-07-02T07:10:40;19.00;99.90
20366;DHT22;10341;49.894;8.822;2023-07-02T07:15:59;19.00;99.90
20366;DHT22;10341;49.894;8.822;2023-07-02T07:21:18;19.20;99.90
20366;DHT22;10341;49.894;8.822;2023-07-02T07:26:38;19.30;99.90
20366;DHT22;10341;49.894;8.822;2023-07-02T07:31:58;19.50;99.90
20366;DHT22;10341;49.894;8.822;2023-07-02T07:37:17;19.70;99.90
20366;DHT22;10341;49.894;8.822;2023-07-02T07:42:36;20.30;99.90
20366;DHT22;10341;49.894;8.822;2023-07-02T07:47:55;20.60;99.90
20366;DHT22;10341;49.894;8.822;2023-07-02T07:53:15;20.60;99.90
20366;DHT22;10341;49.894;8.822;2023-07-02T07:58:34;21.10;99.90
20366;DHT22;10341;49.894;8.822;2023-07-02T08:03:54;21.50;99.90
20366;DHT22;10341;49.894;8.822;2023-07-02T08:09:14;21.30;99.90
20366;DHT22;10341;49.894;8.822;2023-07-02T08:14:34;21.70;99.90
20366;DHT22;10341;49.894;8.822;2023-07-02T08:19:57;21.80;99.90
20366;DHT22;10341;49.894;8.822;2023-07-02T08:25:17;22.10;99.90
20366;DHT22;10341;49.894;8.822;2023-07-02T08:30:37;24.20;99.90
20366;DHT22;10341;49.894;8.822;2023-07-02T08:35:56;26.70;95.50
20366;DHT22;10341;49.894;8.822;2023-07-02T08:41:16;26.40;94.00
20366;DHT22;10341;49.894;8.822;2023-07-02T08:46:36;27.20;91.80
20366;DHT22;10341;49.894;8.822;2023-07-02T08:51:55;26.70;90.90
20366;DHT22;10341;49.894;8.822;2023-07-02T08:57:15;25.40;93.30
20366;DHT22;10341;49.894;8.822;2023-07-02T09:02:34;24.20;94.30
20366;DHT22;10341;49.894;8.822;2023-07-02T09:07:53;25.10;93.50
20366;DHT22;10341;49.894;8.822;2023-07-02T09:13:13;25.20;92.70
20366;DHT22;10341;49.894;8.822;2023-07-02T09:18:32;25.30;92.30
20366;DHT22;10341;49.894;8.822;2023-07-02T09:23:52;24.60;93.10
20366;DHT22;10341;49.894;8.822;2023-07-02T09:29:12;25.20;92.00
20366;DHT22;10341;49.894;8.822;2023-07-02T09:34:33;24.70;91.60
20366;DHT22;10341;49.894;8.822;2023-07-02T09:39:53;24.20;92.20
20366;DHT22;10341;49.894;8.822;2023-07-02T09:45:14;24.20;92.80
20366;DHT22;10341;49.894;8.822;2023-07-02T09:50:34;24.60;92.80
20366;DHT22;10341;49.894;8.822;2023-07-02T09:55:54;24.60;92.20
20366;DHT22;10341;49.894;8.822;2023-07-02T10:01:13;24.80;91.90
20366;DHT22;10341;49.894;8.822;2023-07-02T10:06:44;27.20;88.30
20366;DHT22;10341;49.894;8.822;2023-07-02T10:12:23;26.70;88.00
20366;DHT22;10341;49.894;8.822;2023-07-02T10:17:54;26.90;86.20
20366;DHT22;10341;49.894;8.822;2023-07-02T10:23:13;27.40;85.00
20366;DHT22;10341;49.894;8.822;2023-07-02T10:28:32;27.20;85.40
20366;DHT22;10341;49.894;8.822;2023-07-02T10:33:52;27.80;84.00
20366;DHT22;10341;49.894;8.822;2023-07-02T10:39:12;26.60;86.00
20366;DHT22;10341;49.894;8.822;2023-07-02T10:44:32;27.50;85.30
20366;DHT22;10341;49.894;8.822;2023-07-02T10:49:51;29.30;79.90
20366;DHT22;10341;49.894;8.822;2023-07-02T10:55:25;31.50;73.90
20366;DHT22;10341;49.894;8.822;2023-07-02T11:00:49;31.00;72.20
20366;DHT22;10341;49.894;8.822;2023-07-02T11:06:08;28.90;73.60
20366;DHT22;10341;49.894;8.822;2023-07-02T11:11:28;27.90;77.20
20366;DHT22;10341;49.894;8.822;2023-07-02T11:16:54;30.40;73.40
20366;DHT22;10341;49.894;8.822;2023-07-02T11:22:14;31.20;71.20
20366;DHT22;10341;49.894;8.822;2023-07-02T11:27:33;29.80;70.90
20366;DHT22;10341;49.894;8.822;2023-07-02T11:32:54;30.40;69.00
20366;DHT22;10341;49.894;8.822;2023-07-02T11:38:14;32.00;66.90
20366;DHT22;10341;49.894;8.822;2023-07-02T11:43:33;31.60;66.00
20366;DHT22;10341;49.894;8.822;2023-07-02T11:48:53;30.60;67.80
20366;DHT22;10341;49.894;8.822;2023-07-02T11:54:13;31.70;65.80
20366;DHT22;10341;49.894;8.822;2023-07-02T11:59:32;31.20;64.90
20366;DHT22;10341;49.894;8.822;2023-07-02T12:04:52;31.40;63.90
20366;DHT22;10341;49.894;8.822;2023-07-02T12:10:11;29.30;67.80
20366;DHT22;10341;49.894;8.822;2023-07-02T12:15:31;28.50;70.20
20366;DHT22;10341;49.894;8.822;2023-07-02T12:20:50;29.80;69.50
20366;DHT22;10341;49.894;8.822;2023-07-02T12:26:10;30.10;64.80
20366;DHT22;10341;49.894;8.822;2023-07-02T12:31:30;29.10;66.40
20366;DHT22;10341;49.894;8.822;2023-07-02T12:36:50;29.10;68.40
20366;DHT22;10341;49.894;8.822;2023-07-02T12:42:09;28.50;69.80
20366;DHT22;10341;49.894;8.822;2023-07-02T12:47:29;27.20;71.60
20366;DHT22;10341;49.894;8.822;2023-07-02T12:52:49;26.60;73.50
20366;DHT22;10341;49.894;8.822;2023-07-02T12:58:08;26.10;75.40
20366;DHT22;10341;49.894;8.822;2023-07-02T13:03:29;26.30;75.50
20366;DHT22;10341;49.894;8.822;2023-07-02T13:08:49;26.10;75.70
20366;DHT22;10341;49.894;8.822;2023-07-02T13:14:08;26.00;75.60
20366;DHT22;10341;49.894;8.822;2023-07-02T13:19:28;26.10;74.70
20366;DHT22;10341;49.894;8.822;2023-07-02T13:24:47;27.20;75.80
20366;DHT22;10341;49.894;8.822;2023-07-02T13:30:07;26.80;74.10
20366;DHT22;10341;49.894;8.822;2023-07-02T13:35:27;27.60;73.50
20366;DHT22;10341;49.894;8.822;2023-07-02T13:40:46;27.50;72.90
20366;DHT22;10341;49.894;8.822;2023-07-02T13:46:06;26.90;74.00
20366;DHT22;10341;49.894;8.822;2023-07-02T13:51:25;26.80;73.00
20366;DHT22;10341;49.894;8.822;2023-07-02T13:56:48;26.80;73.30
20366;DHT22;10341;49.894;8.822;2023-07-02T14:02:08;28.10;69.50
20366;DHT22;10341;49.894;8.822;2023-07-02T14:07:28;28.70;68.60
20366;DHT22;10341;49.894;8.822;2023-07-02T14:12:48;29.90;67.50
20366;DHT22;10341;49.894;8.822;2023-07-02T14:18:08;29.60;64.00
20366;DHT22;10341;49.894;8.822;2023-07-02T14:23:27;29.00;67.70
20366;DHT22;10341;49.894;8.822;2023-07-02T14:28:46;28.80;65.60
20366;DHT22;10341;49.894;8.822;2023-07-02T14:34:06;29.20;66.10
20366;DHT22;10341;49.894;8.822;2023-07-02T14:39:26;30.10;64.80
20366;DHT22;10341;49.894;8.822;2023-07-02T14:44:45;29.90;64.30
20366;DHT22;10341;49.894;8.822;2023-07-02T14:50:05;29.60;65.00
20366;DHT22;10341;49.894;8.822;2023-07-02T14:55:26;29.30;66.40
20366;DHT22;10341;49.894;8.822;2023-07-02T15:00:47;29.70;66.00
20366;DHT22;10341;49.894;8.822;2023-07-02T15:06:16;29.40;64.30
20366;DHT22;10341;49.894;8.822;2023-07-02T15:11:35;27.80;66.00
20366;DHT22;10341;49.894;8.822;2023-07-02T15:16:55;27.10;68.00
20366;DHT22;10341;49.894;8.822;2023-07-02T15:22:14;26.80;69.10
20366;DHT22;10341;49.894;8.822;2023-07-02T15:27:34;27.80;67.50
20366;DHT22;10341;49.894;8.822;2023-07-02T15:32:54;28.30;67.10
20366;DHT22;10341;49.894;8.822;2023-07-02T15:38:13;28.20;66.90
20366;DHT22;10341;49.894;8.822;2023-07-02T15:43:33;27.50;67.90
20366;DHT22;10341;49.894;8.822;2023-07-02T15:48:53;27.20;68.70
20366;DHT22;10341;49.894;8.822;2023-07-02T15:54:12;27.20;68.20
20366;DHT22;10341;49.894;8.822;2023-07-02T15:59:32;26.80;68.30
20366;DHT22;10341;49.894;8.822;2023-07-02T16:04:51;26.10;69.10
20366;DHT22;10341;49.894;8.822;2023-07-02T16:10:11;25.40;71.00
20366;DHT22;10341;49.894;8.822;2023-07-02T16:15:30;25.20;72.60
20366;DHT22;10341;49.894;8.822;2023-07-02T16:21:01;24.80;74.10
20366;DHT22;10341;49.894;8.822;2023-07-02T16:26:20;24.50;73.60
20366;DHT22;10341;49.894;8.822;2023-07-02T16:31:47;24.40;74.20
20366;DHT22;10341;49.894;8.822;2023-07-02T16:37:06;25.40;72.60
20366;DHT22;10341;49.894;8.822;2023-07-02T16:42:26;25.90;71.10
20366;DHT22;10341;49.894;8.822;2023-07-02T16:47:46;25.60;71.20
20366;DHT22;10341;49.894;8.822;2023-07-02T16:53:05;26.10;70.00
20366;DHT22;10341;49.894;8.822;2023-07-02T16:58:27;26.60;70.90
20366;DHT22;10341;49.894;8.822;2023-07-02T17:03:47;26.80;68.50
20366;DHT22;10341;49.894;8.822;2023-07-02T17:09:20;26.20;69.60
20366;DHT22;10341;49.894;8.822;2023-07-02T17:14:42;25.50;71.70
20366;DHT22;10341;49.894;8.822;2023-07-02T17:20:02;25.30;71.80
20366;DHT22;10341;49.894;8.822;2023-07-02T17:25:21;24.70;73.30
20366;DHT22;10341;49.894;8.822;2023-07-02T17:30:41;24.20;73.40
20366;DHT22;10341;49.894;8.822;2023-07-02T17:36:01;24.20;74.30
20366;DHT22;10341;49.894;8.822;2023-07-02T17:41:20;24.30;73.00
20366;DHT22;10341;49.894;8.822;2023-07-02T17:46:40;24.00;73.20
20366;DHT22;10341;49.894;8.822;2023-07-02T17:52:00;23.90;73.50
20366;DHT22;10341;49.894;8.822;2023-07-02T17:57:20;24.00;74.80
20366;DHT22;10341;49.894;8.822;2023-07-02T18:02:39;24.00;75.40
20366;DHT22;10341;49.894;8.822;2023-07-02T18:07:59;23.80;74.00
20366;DHT22;10341;49.894;8.822;2023-07-02T18:13:19;23.50;75.30
20366;DHT22;10341;49.894;8.822;2023-07-02T18:18:40;23.20;75.90
20366;DHT22;10341;49.894;8.822;2023-07-02T18:24:00;22.90;77.50
20366;DHT22;10341;49.894;8.822;2023-07-02T18:29:20;22.70;77.70
20366;DHT22;10341;49.894;8.822;2023-07-02T18:34:40;22.50;78.20
20366;DHT22;10341;49.894;8.822;2023-07-02T18:40:00;22.30;78.10
20366;DHT22;10341;49.894;8.822;2023-07-02T18:45:20;22.10;78.90
20366;DHT22;10341;49.894;8.822;2023-07-02T18:50:41;21.90;80.10
20366;DHT22;10341;49.894;8.822;2023-07-02T18:56:05;21.70;80.90
20366;DHT22;10341;49.894;8.822;2023-07-02T19:01:25;21.50;81.50
20366;DHT22;10341;49.894;8.822;2023-07-02T19:06:45;21.30;82.00
20366;DHT22;10341;49.894;8.822;2023-07-02T19:12:05;21.10;82.80
20366;DHT22;10341;49.894;8.822;2023-07-02T19:17:26;21.00;83.80
20366;DHT22;10341;49.894;8.822;2023-07-02T19:22:46;20.80;84.10
20366;DHT22;10341;49.894;8.822;2023-07-02T19:28:06;20.70;84.80
20366;DHT22;10341;49.894;8.822;2023-07-02T19:33:28;20.40;86.60
20366;DHT22;10341;49.894;8.822;2023-07-02T19:38:47;20.20;87.50
20366;DHT22;10341;49.894;8.822;2023-07-02T19:44:07;20.10;88.10
20366;DHT22;10341;49.894;8.822;2023-07-02T19:49:27;19.90;89.00
20366;DHT22;10341;49.894;8.822;2023-07-02T19:54:49;19.70;90.20
20366;DHT22;10341;49.894;8.822;2023-07-02T20:00:12;19.60;90.60
20366;DHT22;10341;49.894;8.822;2023-07-02T20:05:34;19.50;91.20
20366;DHT22;10341;49.894;8.822;2023-07-02T20:10:53;19.30;92.10
20366;DHT22;10341;49.894;8.822;2023-07-02T20:16:14;19.10;92.90
20366;DHT22;10341;49.894;8.822;2023-07-02T20:21:33;19.10;93.20
20366;DHT22;10341;49.894;8.822;2023-07-02T20:26:55;19.10;93.80
20366;DHT22;10341;49.894;8.822;2023-07-02T20:32:15;19.00;94.60
20366;DHT22;10341;49.894;8.822;2023-07-02T20:37:37;19.00;94.70
20366;DHT22;10341;49.894;8.822;2023-07-02T20:42:57;19.00;95.30
20366;DHT22;10341;49.894;8.822;2023-07-02T20:48:16;19.00;95.40
20366;DHT22;10341;49.894;8.822;2023-07-02T20:53:36;19.00;95.70
20366;DHT22;10341;49.894;8.822;2023-07-02T20:58:55;19.10;95.70
20366;DHT22;10341;49.894;8.822;2023-07-02T21:04:15;19.10;96.10
20366;DHT22;10341;49.894;8.822;2023-07-02T21:09:36;19.10;96.20
20366;DHT22;10341;49.894;8.822;2023-07-02T21:14:55;19.00;96.30
20366;DHT22;10341;49.894;8.822;2023-07-02T21:20:15;19.00;96.70
20366;DHT22;10341;49.894;8.822;2023-07-02T21:25:35;19.00;96.80
20366;DHT22;10341;49.894;8.822;2023-07-02T21:30:55;19.00;97.20
20366;DHT22;10341;49.894;8.822;2023-07-02T21:36:14;19.00;97.40
20366;DHT22;10341;49.894;8.822;2023-07-02T21:41:35;18.90;97.70
20366;DHT22;10341;49.894;8.822;2023-07-02T21:46:55;18.90;97.60
20366;DHT22;10341;49.894;8.822;2023-07-02T21:52:15;18.80;98.10
20366;DHT22;10341;49.894;8.822;2023-07-02T21:57:35;18.70;98.60
20366;DHT22;10341;49.894;8.822;2023-07-02T22:02:54;18.70;98.90
20366;DHT22;10341;49.894;8.822;2023-07-02T22:08:14;18.60;99.40
20366;DHT22;10341;49.894;8.822;2023-07-02T22:13:33;18.60;99.50
20366;DHT22;10341;49.894;8.822;2023-07-02T22:18:53;18.50;99.90
20366;DHT22;10341;49.894;8.822;2023-07-02T22:24:13;18.40;99.90
20366;DHT22;10341;49.894;8.822;2023-07-02T22:29:33;18.30;99.90
20366;DHT22;10341;49.894;8.822;2023-07-02T22:34:52;18.30;99.90
20366;DHT22;10341;49.894;8.822;2023-07-02T22:40:15;18.30;99.90
20366;DHT22;10341;49.894;8.822;2023-07-02T22:45:36;18.30;99.90
20366;DHT22;10341;49.894;8.822;2023-07-02T22:50:57;18.30;99.90
20366;DHT22;10341;49.894;8.822;2023-07-02T22:56:17;18.20;99.90
20366;DHT22;10341;49.894;8.822;2023-07-02T23:01:37;18.20;99.90
20366;DHT22;10341;49.894;8.822;2023-07-02T23:06:56;18.10;99.90
20366;DHT22;10341;49.894;8.822;2023-07-02T23:12:16;18.00;99.90
20366;DHT22;10341;49.894;8.822;2023-07-02T23:17:35;17.90;99.90
20366;DHT22;10341;49.894;8.822;2023-07-02T23:22:55;17.90;99.90
20366;DHT22;10341;49.894;8.822;2023-07-02T23:28:14;17.90;99.90
20366;DHT22;10341;49.894;8.822;2023-07-02T23:33:34;17.90;99.90
20366;DHT22;10341;49.894;8.822;2023-07-02T23:38:54;17.90;99.90
20366;DHT22;10341;49.894;8.822;2023-07-02T23:44:14;18.00;99.90
20366;DHT22;10341;49.894;8.822;2023-07-02T23:49:33;17.90;99.90
20366;DHT22;10341;49.894;8.822;2023-07-02T23:54:53;17.90;99.90
